Dortmund, Germany

9:57 PM CEST on September 02, 2015 (GMT +0200)
Dortmund | | Change Station
CLOSE
Current Station
Airport
Location: Dortmund,
Elevation: 417 ft
Nearby Weather Stations

Elev 417 ft 51.52 °N, 7.61 °E | Updated 7 minutes ago

Clear
Clear
55 °F
Feels Like 55 °F
N
5
Wind Variable Wind from SW

Today
High -- | Low -- °F
--% Chance of Precip.
Yesterday
High -- | Low -- °F
Precip. -- in
6:42 AM 8:14 PM
Waning Gibbous, 77% visible
Pressure 30.01 in
Visibility -9999.0 miles
Clouds
Dew Point 48 °F
Humidity 77%
Rainfall 0.00 in
Snow Depth Not available.
UV Not available.
Pollen Not available.
Air Quality Not available.
Flu Activity Not available.
METAR EDLW 021950Z 23004KT CAVOK 13/09 Q1016 RMK ATIS I
Pressure 30.01 in
Visibility -9999.0 miles
Clouds
Dew Point 48 °F
Humidity 77%
Rainfall 0.00 in
Snow Depth Not available.
UV Not available.
Pollen Not available.
Air Quality Not available.
Flu Activity Not available.
METAR EDLW 021950Z 23004KT CAVOK 13/09 Q1016 RMK ATIS I

10-Day Weather Forecast

×

Almanac

Astronomy

Sep. 02, 2015 Rise Set
Actual Time
Civil Twilight
Nautical Twilight
Astronomical Twilight
Moon
Length of Visible Light
Length of Day
Tomorrow will be .
, % of the Moon is Illuminated

Today's Extremes

Country Highs Country Lows

Community

WunderPhotos

Upload Photos

1,851,801 photos uploaded!

WunderBlogs® & News

Nearby

Air Quality

  Air Quality AQ Index Pollutant
Not available.

Snow Depth

Station Depth Elevation

Earthquake Activity

City Distance Mag. Time & Date
Minimum magnitude displayed is 2.5.

Coastal Water Temperatures

Place Temperature

Stations

Nearby Weather Stations

Station Location Temp. Windchill Dew Point Humidity Wind Precip. Elev Updated Type